Time;durP1;ratioP1;P1;durP2;ratioP2;P2;SDS_P1;SDS_P2;PMS_P1;PMS_P2;Temp;Humidity;BMP_temperature;BMP_pressure;BME280_temperature;BME280_humidity;BME280_pressure;Samples;Min_cycle;Max_cycle;Signal;HPM_P1;HPM_P2
2022/11/29 00:03:24;;;;;;;7.53;4.80;;;;;;;17.22;62.43;96383.72;10489819;28;20036;-29
2022/11/29 00:08:25;;;;;;;7.80;4.82;;;;;;;17.24;62.23;96382.03;10490228;28;20063;-30
2022/11/29 00:13:25;;;;;;;8.27;4.77;;;;;;;17.23;62.17;96375.31;10490030;28;20499;-30
2022/11/29 00:18:25;;;;;;;5.67;4.20;;;;;;;17.29;61.58;96372.75;10489600;28;20066;-29
2022/11/29 00:23:26;;;;;;;7.33;4.07;;;;;;;17.33;61.22;96367.69;10490311;28;20032;-29
2022/11/29 00:28:26;;;;;;;7.47;3.97;;;;;;;17.33;61.37;96372.75;10488725;28;20037;-30
2022/11/29 00:33:27;;;;;;;7.00;4.37;;;;;;;17.30;61.89;96364.31;10489298;28;20297;-29
2022/11/29 00:38:27;;;;;;;8.77;5.07;;;;;;;17.28;61.82;96366.00;10488362;28;20024;-29
2022/11/29 00:43:27;;;;;;;6.87;3.83;;;;;;;17.24;62.07;96364.34;10489440;28;20033;-29
2022/11/29 00:48:28;;;;;;;7.13;4.47;;;;;;;17.24;62.07;96361.81;10489701;28;20085;-31
2022/11/29 00:53:29;;;;;;;5.88;4.43;;;;;;;17.23;61.92;96362.66;10488977;28;20347;-29
2022/11/29 00:58:29;;;;;;;6.83;3.77;;;;;;;17.24;61.84;96361.81;10488967;28;20029;-30
2022/11/29 01:03:30;;;;;;;7.82;4.07;;;;;;;17.22;61.75;96369.38;10488684;28;20723;-29
2022/11/29 01:08:31;;;;;;;6.43;3.80;;;;;;;17.20;62.12;96368.56;10488923;28;20032;-29
2022/11/29 01:13:33;;;;;;;10.30;3.38;;;;;;;17.20;62.15;96371.09;10470346;28;20043;-29
2022/11/29 01:18:34;;;;;;;5.38;3.70;;;;;;;17.22;62.01;96371.06;10488391;28;20033;-29
2022/11/29 01:23:35;;;;;;;6.50;4.35;;;;;;;17.21;61.98;96364.31;10489120;28;20161;-29
2022/11/29 01:28:37;;;;;;;5.97;3.50;;;;;;;17.18;61.97;96359.28;10487241;28;20127;-30
2022/11/29 01:33:37;;;;;;;7.75;3.95;;;;;;;17.19;61.92;96366.00;10487879;28;20040;-29
2022/11/29 01:38:38;;;;;;;7.03;4.32;;;;;;;17.18;61.57;96369.38;10494438;28;20058;-30
2022/11/29 01:44:02;;;;;;;5.53;3.58;;;;;;;17.29;61.75;96376.13;10495829;28;20399;-30
2022/11/29 01:49:09;;;;;;;10.60;4.18;;;;;;;17.31;61.93;96371.09;10494291;28;20052;-30
2022/11/29 01:54:12;;;;;;;7.07;3.70;;;;;;;17.30;61.86;96374.44;10494935;28;20432;-30
2022/11/29 01:59:16;;;;;;;8.35;3.80;;;;;;;17.30;61.42;96364.31;10494565;28;20529;-29
2022/11/29 02:04:18;;;;;;;7.72;3.72;;;;;;;17.23;61.78;96362.66;10494433;28;20035;-30
2022/11/29 02:09:20;;;;;;;5.95;3.65;;;;;;;17.16;61.93;96350.84;10476820;28;20072;-30
2022/11/29 02:14:43;;;;;;;7.65;4.20;;;;;;;17.18;61.96;96360.13;10460302;28;20066;-29
2022/11/29 02:19:46;;;;;;;6.03;4.00;;;;;;;17.20;62.13;96357.56;10494200;28;20029;-29
2022/11/29 02:25:06;;;;;;;5.72;4.03;;;;;;;17.18;62.24;96344.09;10493325;28;20094;-29
2022/11/29 02:30:18;;;;;;;4.30;2.97;;;;;;;17.19;62.04;96338.19;10494122;28;20040;-30
2022/11/29 02:35:43;;;;;;;5.32;3.40;;;;;;;17.19;62.18;96341.56;10494444;28;20048;-29
2022/11/29 02:40:55;;;;;;;4.15;2.97;;;;;;;17.16;61.99;96346.63;10451947;28;20381;-29
2022/11/29 02:46:01;;;;;;;6.63;3.08;;;;;;;17.19;62.10;96346.63;10468675;28;20032;-30
2022/11/29 02:51:10;;;;;;;5.80;3.40;;;;;;;17.15;62.04;96344.09;10492769;28;20101;-29
2022/11/29 02:56:30;;;;;;;5.45;3.17;;;;;;;17.19;62.02;96350.84;10493488;28;20028;-30
2022/11/29 03:01:50;;;;;;;4.70;2.90;;;;;;;17.12;62.01;96342.41;10492348;28;20107;-29
2022/11/29 03:07:28;;;;;;;5.72;3.25;;;;;;;17.18;62.08;96359.28;10492170;28;20541;-29
2022/11/29 03:12:46;;;;;;;5.80;3.10;;;;;;;17.30;61.75;96354.19;10491998;28;20503;-29
2022/11/29 03:18:00;;;;;;;4.93;3.13;;;;;;;17.30;61.61;96366.84;10491549;28;20468;-29
2022/11/29 03:23:19;;;;;;;3.83;2.63;;;;;;;17.29;61.78;96376.13;10492043;28;20037;-29
2022/11/29 03:28:28;;;;;;;4.15;3.08;;;;;;;17.23;61.70;96367.72;10491172;28;20068;-28
2022/11/29 03:33:44;;;;;;;4.13;2.17;;;;;;;17.22;62.10;96376.13;10490434;28;20506;-29
2022/11/29 03:38:46;;;;;;;3.88;3.00;;;;;;;17.20;62.23;96382.88;10490536;28;20477;-29
2022/11/29 03:44:09;;;;;;;4.38;2.72;;;;;;;17.22;61.71;96383.72;10491715;28;20033;-30
2022/11/29 03:49:22;;;;;;;4.63;2.80;;;;;;;17.22;61.73;96386.25;10490968;28;20037;-29
2022/11/29 03:54:34;;;;;;;4.78;3.10;;;;;;;17.21;61.88;96385.41;10490675;28;20450;-31
2022/11/29 03:59:52;;;;;;;5.18;2.67;;;;;;;17.23;62.12;96387.94;10490051;28;20050;-29
2022/11/29 04:05:15;;;;;;;6.03;3.13;;;;;;;17.21;62.10;96402.25;10449306;28;20037;-29
2022/11/29 04:10:39;;;;;;;6.18;2.70;;;;;;;17.21;61.98;96399.72;10516729;28;20036;-28
2022/11/29 04:16:30;;;;;;;5.28;3.30;;;;;;;17.21;62.25;96397.22;10517622;28;20036;-29
2022/11/29 04:21:33;;;;;;;4.03;3.00;;;;;;;17.18;61.96;96398.06;10485349;28;20043;-30
2022/11/29 04:27:07;;;;;;;5.40;3.33;;;;;;;17.19;62.04;96396.38;10490382;28;20037;-29
2022/11/29 04:32:26;;;;;;;4.97;2.97;;;;;;;17.19;61.83;96394.69;10488493;28;20047;-29
2022/11/29 04:38:02;;;;;;;4.00;2.75;;;;;;;17.31;61.32;96401.44;10487720;28;20028;-29
2022/11/29 04:43:37;;;;;;;5.18;3.10;;;;;;;17.33;61.71;96402.28;10487599;28;20108;-30
2022/11/29 04:48:54;;;;;;;4.57;3.10;;;;;;;17.29;61.77;96414.09;10496174;28;20045;-31
2022/11/29 04:54:19;;;;;;;3.38;2.40;;;;;;;17.28;61.80;96411.53;10488174;28;20586;-29
2022/11/29 04:59:30;;;;;;;3.72;2.17;;;;;;;17.26;61.43;96419.13;10487810;28;20044;-30
2022/11/29 05:04:38;;;;;;;5.90;3.20;;;;;;;17.32;61.50;96420.84;10528598;28;20035;-29
2022/11/29 05:10:00;;;;;;;6.90;3.17;;;;;;;17.35;61.61;96423.34;10485119;28;20037;-29
2022/11/29 05:15:03;;;;;;;5.30;2.88;;;;;;;17.38;61.65;96429.28;10472849;28;20032;-30
2022/11/29 05:20:26;;;;;;;3.72;2.83;;;;;;;17.37;61.56;96436.88;10493815;28;20170;-30
2022/11/29 05:25:49;;;;;;;3.30;2.38;;;;;;;17.37;61.68;96440.25;10500926;28;20082;-31
2022/11/29 05:30:52;;;;;;;3.53;2.45;;;;;;;17.36;61.55;96445.31;10484777;28;20146;-29
2022/11/29 05:36:10;;;;;;;3.70;2.50;;;;;;;17.39;61.44;96447.84;10494648;28;20033;-29
2022/11/29 05:41:38;;;;;;;4.03;2.50;;;;;;;17.41;61.50;96448.69;10495276;28;20059;-29
2022/11/29 05:46:53;;;;;;;5.82;2.53;;;;;;;17.39;61.15;96451.22;10500031;28;20029;-29
2022/11/29 05:52:23;;;;;;;4.82;2.75;;;;;;;17.45;60.63;96458.81;10491640;28;20502;-30
2022/11/29 05:57:33;;;;;;;6.05;2.55;;;;;;;17.36;60.67;96455.44;10500725;28;20052;-31
2022/11/29 06:02:48;;;;;;;7.70;2.83;;;;;;;17.37;61.41;96463.03;10493827;28;20312;-29
2022/11/29 06:08:00;;;;;;;8.45;2.72;;;;;;;17.40;60.19;96469.78;10492710;28;20040;-29
2022/11/29 06:13:27;;;;;;;6.03;2.70;;;;;;;17.43;59.57;96462.19;10536618;28;20359;-30
2022/11/29 06:18:47;;;;;;;10.48;3.70;;;;;;;17.44;59.93;96464.72;10498669;28;20032;-29
2022/11/29 06:24:05;;;;;;;7.43;2.80;;;;;;;17.44;60.13;96474.00;10493441;28;20048;-29
2022/11/29 06:29:24;;;;;;;5.20;2.78;;;;;;;17.48;59.89;96474.00;10474823;28;20239;-30
2022/11/29 06:34:41;;;;;;;11.40;3.03;;;;;;;17.23;57.75;96479.84;10493613;28;20505;-32
2022/11/29 06:39:42;;;;;;;10.27;3.30;;;;;;;17.22;58.39;96482.38;10491710;28;20031;-29
2022/11/29 06:44:42;;;;;;;12.40;3.92;;;;;;;17.26;59.31;96479.00;10492595;28;20035;-29
2022/11/29 06:50:02;;;;;;;8.57;3.70;;;;;;;17.22;59.62;96477.31;10492843;28;20037;-29
2022/11/29 06:55:11;;;;;;;7.45;2.42;;;;;;;17.29;59.54;96489.13;10492910;28;20029;-29
2022/11/29 07:00:38;;;;;;;8.63;3.03;;;;;;;17.29;59.96;96501.78;10491832;28;20435;-29
2022/11/29 07:05:39;;;;;;;7.57;2.35;;;;;;;17.31;59.73;96500.13;10491541;28;20461;-30
2022/11/29 07:10:41;;;;;;;5.85;2.90;;;;;;;17.29;59.95;96504.31;10492096;28;20032;-30
2022/11/29 07:15:52;;;;;;;4.78;2.75;;;;;;;17.28;59.96;96511.06;10492014;28;20029;-29
2022/11/29 07:20:55;;;;;;;9.13;2.50;;;;;;;17.29;60.12;96520.34;10491017;28;20696;-29
2022/11/29 07:26:02;;;;;;;5.38;2.78;;;;;;;17.37;59.90;96521.22;10491698;28;20044;-30
2022/11/29 07:31:30;;;;;;;5.07;2.80;;;;;;;17.32;60.48;96519.50;10490935;28;20111;-29
2022/11/29 07:36:46;;;;;;;4.00;2.38;;;;;;;17.34;60.67;96522.88;10475319;28;20032;-29
2022/11/29 07:42:22;;;;;;;4.38;2.67;;;;;;;17.30;60.59;96526.22;10491666;28;20055;-29
2022/11/29 07:47:23;;;;;;;5.17;2.93;;;;;;;17.27;60.68;96526.25;10490061;28;20551;-29
2022/11/29 07:52:23;;;;;;;5.53;2.47;;;;;;;17.27;60.28;96532.16;10490095;28;20059;-29
2022/11/29 07:57:24;;;;;;;7.05;3.10;;;;;;;17.26;60.37;96530.44;10490735;28;20060;-29
2022/11/29 08:02:29;;;;;;;6.13;2.80;;;;;;;17.25;60.42;96533.00;10471285;28;20036;-29
2022/11/29 08:07:30;;;;;;;5.53;2.90;;;;;;;17.27;60.31;96536.34;10489839;28;20086;-29
2022/11/29 08:12:30;;;;;;;6.57;2.20;;;;;;;17.26;60.35;96537.22;10487465;28;20384;-30
2022/11/29 08:17:31;;;;;;;5.18;2.33;;;;;;;17.24;60.43;96541.44;10481961;28;20656;-29
2022/11/29 08:22:31;;;;;;;8.00;2.97;;;;;;;17.24;60.60;96541.44;10472738;28;20502;-29
2022/11/29 08:27:32;;;;;;;7.43;2.63;;;;;;;17.24;60.67;96541.44;10489218;28;20048;-29
2022/11/29 08:32:33;;;;;;;5.97;2.30;;;;;;;17.24;60.49;96551.53;10488537;28;20102;-29
2022/11/29 08:37:34;;;;;;;5.97;2.78;;;;;;;17.25;60.57;96553.22;10471015;28;20028;-29
2022/11/29 08:42:34;;;;;;;4.57;2.53;;;;;;;17.23;60.85;96549.88;10489340;28;20028;-29
2022/11/29 08:47:36;;;;;;;5.35;2.60;;;;;;;17.26;60.38;96560.81;10488613;28;20403;-29
2022/11/29 08:58:13;;;;;;;4.78;2.33;;;;;;;17.29;60.67;96570.09;10488804;28;20595;-29
2022/11/29 09:08:32;;;;;;;3.78;1.98;;;;;;;17.25;60.94;96565.88;10487786;28;20043;-30
2022/11/29 09:13:33;;;;;;;3.38;1.80;;;;;;;17.21;60.77;96566.69;10453822;28;20128;-29
2022/11/29 09:18:33;;;;;;;4.90;1.98;;;;;;;17.20;61.13;96568.41;10470126;28;20519;-29
2022/11/29 09:23:35;;;;;;;3.70;1.90;;;;;;;17.20;61.06;96568.41;10487845;28;20536;-29
2022/11/29 09:28:36;;;;;;;5.25;2.50;;;;;;;17.12;61.16;96559.94;10487923;28;20361;-29
2022/11/29 09:33:38;;;;;;;2.88;1.95;;;;;;;17.18;61.19;96577.69;10487498;28;20044;-30
2022/11/29 09:38:39;;;;;;;4.88;1.90;;;;;;;17.19;60.92;96581.03;10487566;28;20032;-30
2022/11/29 09:43:48;;;;;;;4.68;2.50;;;;;;;17.18;61.14;96584.41;10488144;28;20082;-29
2022/11/29 09:49:07;;;;;;;3.42;1.95;;;;;;;17.12;61.14;96576.78;10487071;28;20037;-29
2022/11/29 09:54:31;;;;;;;3.35;2.58;;;;;;;17.18;61.15;96595.38;10487621;28;20032;-30
2022/11/29 09:59:37;;;;;;;4.68;2.13;;;;;;;17.18;61.18;96597.06;10454154;28;20131;-29
2022/11/29 10:04:41;;;;;;;;;;;;;;;17.17;61.40;96601.25;10495390;28;20033;-29
2022/11/29 10:10:13;;;;;;;4.55;2.13;;;;;;;17.21;60.84;96592.00;10491156;28;20391;-29
2022/11/29 10:15:17;;;;;;;4.22;2.05;;;;;;;17.25;60.73;96593.72;10468754;28;20048;-29
2022/11/29 10:20:21;;;;;;;2.80;1.83;;;;;;;17.28;60.99;96594.56;10476352;28;20624;-29
2022/11/29 10:25:25;;;;;;;5.25;2.25;;;;;;;17.21;61.42;96592.00;10494383;28;20064;-29
2022/11/29 10:30:26;;;;;;;3.05;1.63;;;;;;;17.20;61.59;96597.91;10475286;28;20036;-30
2022/11/29 10:35:28;;;;;;;3.60;2.03;;;;;;;17.19;61.25;96596.22;10494427;28;20036;-30
2022/11/29 10:40:34;;;;;;;4.45;2.00;;;;;;;17.16;61.43;96597.03;10493117;28;20506;-29
2022/11/29 10:45:49;;;;;;;4.17;2.10;;;;;;;17.11;61.36;96587.75;10493475;28;20086;-29
2022/11/29 10:50:51;;;;;;;2.75;1.70;;;;;;;17.15;61.36;96597.88;10492598;28;20097;-29
2022/11/29 10:55:52;;;;;;;2.80;1.70;;;;;;;17.16;61.43;96594.50;10493265;28;20115;-29
2022/11/29 11:00:56;;;;;;;2.38;1.70;;;;;;;17.13;61.31;96583.53;10492822;28;20119;-29
2022/11/29 11:06:02;;;;;;;3.25;1.60;;;;;;;17.14;61.24;96592.84;10474871;28;20024;-30
2022/11/29 11:11:06;;;;;;;2.37;1.70;;;;;;;17.16;61.13;96596.22;10492961;28;20060;-29
2022/11/29 11:16:18;;;;;;;2.30;1.65;;;;;;;17.17;61.09;96587.78;10491586;28;20043;-29
2022/11/29 11:21:22;;;;;;;2.78;1.80;;;;;;;17.15;60.82;96582.72;10491984;28;20033;-30
2022/11/29 11:26:25;;;;;;;2.72;1.73;;;;;;;17.19;60.59;96583.56;10491893;28;20126;-29
2022/11/29 11:31:33;;;;;;;3.20;1.75;;;;;;;17.22;60.66;96584.41;10491636;28;20028;-29
2022/11/29 11:36:33;;;;;;;1.58;1.45;;;;;;;17.33;60.39;96584.44;10473824;28;20024;-29
2022/11/29 11:46:56;;;;;;;2.83;1.48;;;;;;;17.37;60.15;96591.22;10490848;28;20067;-29
2022/11/29 11:51:59;;;;;;;3.92;2.00;;;;;;;17.33;60.17;96592.88;10489185;28;20111;-29
2022/11/29 11:56:59;;;;;;;2.80;1.65;;;;;;;17.32;60.51;96600.47;10473366;28;20067;-29
2022/11/29 12:02:00;;;;;;;2.95;1.40;;;;;;;17.32;60.27;96600.47;10489524;28;20066;-28
2022/11/29 12:07:14;;;;;;;2.30;1.50;;;;;;;17.36;59.96;96599.66;10488426;28;20036;-29
2022/11/29 12:12:16;;;;;;;1.90;1.30;;;;;;;17.42;59.61;96607.28;10439339;28;20043;-29
2022/11/29 12:17:30;;;;;;;3.78;1.50;;;;;;;17.40;59.96;96614.03;10489972;28;20033;-30
2022/11/29 12:22:40;;;;;;;3.47;1.98;;;;;;;17.40;59.78;96609.78;10487672;28;20161;-29
2022/11/29 12:27:40;;;;;;;2.72;1.60;;;;;;;17.42;59.61;96607.28;10490170;28;20029;-30
2022/11/29 12:33:03;;;;;;;4.15;2.03;;;;;;;17.44;59.60;96605.59;10489450;28;20404;-29
2022/11/29 12:38:11;;;;;;;2.75;1.52;;;;;;;17.46;59.27;96614.88;10488839;28;20449;-29
2022/11/29 12:43:25;;;;;;;3.53;2.00;;;;;;;17.40;60.10;96609.78;10489489;28;20040;-30
2022/11/29 12:48:53;;;;;;;3.40;2.17;;;;;;;17.41;59.91;96608.13;10488462;28;20078;-29
2022/11/29 12:54:06;;;;;;;2.97;1.98;;;;;;;17.43;59.44;96614.88;10488158;28;20036;-30
2022/11/29 12:59:48;;;;;;;4.50;2.53;;;;;;;17.42;59.46;96617.41;10488376;28;20051;-29
2022/11/29 13:05:28;;;;;;;4.22;2.53;;;;;;;17.54;60.84;96618.28;10474303;28;20263;-28
2022/11/29 13:10:57;;;;;;;3.05;2.15;;;;;;;17.56;59.66;96621.66;10486300;28;20075;-29
2022/11/29 13:16:22;;;;;;;3.63;1.80;;;;;;;17.54;58.86;96618.28;10488344;28;20056;-30
2022/11/29 13:21:51;;;;;;;4.85;2.35;;;;;;;17.55;58.61;96621.63;10488662;28;20024;-31
2022/11/29 13:26:53;;;;;;;3.92;2.20;;;;;;;17.56;58.84;96629.25;10459190;28;20507;-29
2022/11/29 13:31:54;;;;;;;3.13;2.10;;;;;;;17.57;58.82;96622.50;10490634;28;20037;-30
2022/11/29 13:36:55;;;;;;;3.55;1.90;;;;;;;17.59;58.60;96625.88;10495885;28;20036;-29
2022/11/29 13:42:04;;;;;;;4.60;2.10;;;;;;;17.60;58.66;96632.63;10496275;28;20048;-30
2022/11/29 13:47:11;;;;;;;3.67;2.03;;;;;;;17.61;58.75;96634.31;10495460;28;20038;-29
2022/11/29 13:52:30;;;;;;;7.35;2.60;;;;;;;17.59;58.80;96631.78;10495035;28;20036;-29
2022/11/29 13:57:48;;;;;;;5.15;2.33;;;;;;;17.61;58.45;96619.97;10460442;28;20544;-29
2022/11/29 14:02:49;;;;;;;3.88;2.20;;;;;;;17.61;58.55;96634.31;10477578;28;20123;-29
2022/11/29 14:08:27;;;;;;;4.50;2.72;;;;;;;17.63;58.76;96642.75;10494819;28;20032;-30
2022/11/29 14:13:55;;;;;;;6.70;3.50;;;;;;;17.61;59.04;96639.38;10494411;28;20442;-29
2022/11/29 14:19:07;;;;;;;8.20;5.20;;;;;;;17.64;59.54;96644.44;10493266;28;20060;-29
2022/11/29 14:24:36;;;;;;;17.58;8.38;;;;;;;17.66;62.04;96646.13;10494022;28;20060;-29
2022/11/29 14:29:49;;;;;;;11.98;7.25;;;;;;;17.66;61.12;96648.66;10493389;28;20047;-29
2022/11/29 14:35:09;;;;;;;11.23;5.97;;;;;;;17.64;60.06;96652.03;10493864;28;20047;-29
2022/11/29 14:40:22;;;;;;;8.65;5.15;;;;;;;17.63;59.57;96657.94;10478421;28;20067;-29
2022/11/29 14:45:30;;;;;;;10.32;5.20;;;;;;;17.62;59.39;96659.63;10493460;28;20064;-30
2022/11/29 14:50:36;;;;;;;9.90;4.88;;;;;;;17.65;59.45;96661.34;10493746;28;20041;-29
2022/11/29 14:55:37;;;;;;;;;;;;;;;17.60;59.05;96642.75;10476266;28;20164;-29
2022/11/29 15:00:46;;;;;;;8.23;5.68;;;;;;;17.64;59.08;96657.09;10492568;28;19917;-29
2022/11/29 15:05:57;;;;;;;8.45;5.25;;;;;;;17.64;58.86;96659.63;10492161;28;20377;-30
2022/11/29 15:11:03;;;;;;;11.93;5.50;;;;;;;17.64;58.69;96659.63;10491866;28;20079;-29
2022/11/29 15:16:21;;;;;;;8.10;4.88;;;;;;;17.64;59.00;96665.53;10492137;28;20058;-30
2022/11/29 15:21:39;;;;;;;10.80;5.78;;;;;;;17.64;60.22;96668.06;10492128;28;20063;-29
2022/11/29 15:27:02;;;;;;;11.52;4.78;;;;;;;17.48;59.16;96673.09;10492775;28;20506;-29
2022/11/29 15:32:04;;;;;;;7.20;4.47;;;;;;;17.54;59.11;96668.91;10491442;28;20060;-29
2022/11/29 15:37:05;;;;;;;10.13;4.30;;;;;;;17.11;57.54;96656.91;10491651;28;20043;-30
2022/11/29 15:42:11;;;;;;;7.90;4.13;;;;;;;17.36;58.57;96680.63;10492439;28;20037;-30
2022/11/29 15:47:23;;;;;;;14.15;4.05;;;;;;;17.44;59.11;96674.78;10491286;28;20036;-31
2022/11/29 15:52:29;;;;;;;10.80;4.50;;;;;;;17.42;59.60;96668.84;10490670;28;20098;-29
2022/11/29 15:57:39;;;;;;;13.57;4.78;;;;;;;17.51;58.94;96678.16;10491553;28;20036;-29
2022/11/29 16:18:20;;;;;;;5.88;3.95;;;;;;;17.69;58.49;96683.28;10555536;27;20445;-28
2022/11/29 16:23:30;;;;;;;9.57;4.32;;;;;;;17.63;58.97;96695.91;10513446;28;20036;-28
2022/11/29 16:28:41;;;;;;;8.55;3.90;;;;;;;17.61;58.88;96687.47;10523177;28;20482;-29
2022/11/29 16:33:42;;;;;;;7.07;3.47;;;;;;;17.59;58.83;96689.16;10505623;28;20029;-27
2022/11/29 16:38:49;;;;;;;7.78;3.55;;;;;;;17.56;58.69;96701.81;10517900;28;20036;-29
2022/11/29 16:43:54;;;;;;;4.95;3.13;;;;;;;17.57;58.84;96698.44;10514090;28;20256;-28
2022/11/29 16:48:57;;;;;;;4.60;3.33;;;;;;;17.60;58.52;96700.97;10507758;28;20597;-29
2022/11/29 16:54:22;;;;;;;6.22;3.67;;;;;;;17.61;58.33;96710.25;10505020;28;20438;-29
2022/11/29 16:59:25;;;;;;;6.30;2.95;;;;;;;17.45;58.95;96708.50;10514659;28;20043;-29
2022/11/29 17:04:25;;;;;;;4.47;3.05;;;;;;;17.39;58.70;96713.53;10504694;28;20563;-29
2022/11/29 17:09:30;;;;;;;7.67;3.60;;;;;;;17.42;60.43;96713.56;10508201;28;20044;-29
2022/11/29 17:14:30;;;;;;;7.35;3.45;;;;;;;17.38;59.78;96711.84;10512878;28;20037;-29
2022/11/29 17:19:31;;;;;;;6.82;3.83;;;;;;;17.42;60.78;96716.09;10480972;28;20403;-28
2022/11/29 17:24:31;;;;;;;9.85;3.65;;;;;;;17.48;60.03;96719.50;10480819;28;20503;-28
2022/11/29 17:29:32;;;;;;;11.83;4.40;;;;;;;17.43;60.48;96721.19;10485143;28;20069;-29
2022/11/29 17:34:32;;;;;;;6.57;4.13;;;;;;;17.42;60.19;96721.16;10483744;28;20394;-29
2022/11/29 17:39:33;;;;;;;6.50;3.80;;;;;;;17.32;60.84;96710.13;10480409;28;20286;-29
2022/11/29 17:44:33;;;;;;;8.13;3.70;;;;;;;17.44;60.33;96715.28;10487149;28;20530;-29
2022/11/29 17:49:33;;;;;;;8.33;3.70;;;;;;;17.41;60.85;96722.84;10483203;28;20066;-29
2022/11/29 17:54:34;;;;;;;7.37;3.13;;;;;;;17.41;60.84;96719.47;10475187;28;20029;-29
2022/11/29 17:59:35;;;;;;;4.60;3.67;;;;;;;17.43;61.15;96730.44;10476597;28;20282;-30
2022/11/29 18:04:36;;;;;;;7.03;3.43;;;;;;;17.54;60.79;96738.91;10474955;28;20032;-29
2022/11/29 18:09:36;;;;;;;8.13;3.35;;;;;;;17.59;60.03;96737.25;10471695;28;20514;-29
2022/11/29 18:14:37;;;;;;;6.63;3.53;;;;;;;17.57;60.44;96744.84;10478735;28;20059;-29
2022/11/29 18:19:38;;;;;;;9.20;3.05;;;;;;;17.57;59.87;96744.00;10489593;28;20617;-29
2022/11/29 18:24:42;;;;;;;8.65;3.20;;;;;;;17.57;59.62;96744.00;10488168;28;20077;-29
2022/11/29 18:29:42;;;;;;;9.32;3.95;;;;;;;17.58;59.26;96745.69;10471018;28;20047;-29
2022/11/29 18:34:43;;;;;;;6.43;3.30;;;;;;;17.59;59.46;96750.75;10481240;28;20041;-29
2022/11/29 18:39:43;;;;;;;5.07;2.63;;;;;;;17.59;59.30;96753.28;10479856;28;20044;-29
2022/11/29 18:44:43;;;;;;;5.67;3.23;;;;;;;17.60;59.10;96749.06;10474838;28;20029;-29
2022/11/29 18:49:44;;;;;;;6.90;2.80;;;;;;;17.59;59.39;96762.56;10474485;28;20044;-30
2022/11/29 18:54:44;;;;;;;5.23;3.07;;;;;;;17.58;60.25;96756.66;10480207;28;20029;-30
2022/11/29 18:59:44;;;;;;;8.20;4.17;;;;;;;17.58;60.28;96765.94;10481568;28;20085;-29
2022/11/29 19:04:46;;;;;;;5.97;3.83;;;;;;;17.60;60.20;96761.72;10478252;28;20028;-29
2022/11/29 19:09:47;;;;;;;10.93;3.17;;;;;;;17.58;60.07;96763.41;10472706;28;20037;-29
2022/11/29 19:14:47;;;;;;;6.03;3.10;;;;;;;17.58;59.37;96766.78;10467154;28;20032;-29
2022/11/29 19:19:47;;;;;;;6.37;3.50;;;;;;;17.56;60.05;96767.63;10480677;28;20040;-31
2022/11/29 19:24:48;;;;;;;8.27;3.72;;;;;;;17.55;60.22;96765.91;10479630;28;20060;-29
2022/11/29 19:29:49;;;;;;;7.82;3.70;;;;;;;17.54;60.22;96770.16;10477114;28;20539;-30
2022/11/29 19:34:50;;;;;;;7.63;3.28;;;;;;;17.56;59.96;96767.63;10473280;28;20037;-29
2022/11/29 19:39:50;;;;;;;6.07;3.55;;;;;;;17.55;60.28;96768.44;10481457;28;20045;-29
2022/11/29 19:44:52;;;;;;;6.60;3.63;;;;;;;17.52;60.10;96765.91;10469684;28;20037;-29
2022/11/29 19:49:52;;;;;;;5.75;3.38;;;;;;;17.51;60.39;96769.28;10476621;28;20824;-29
2022/11/29 19:54:52;;;;;;;5.43;2.87;;;;;;;17.51;60.37;96779.41;10464829;28;20032;-29
2022/11/29 19:59:53;;;;;;;9.83;4.03;;;;;;;17.51;60.20;96770.13;10473277;28;20055;-29
2022/11/29 20:04:53;;;;;;;3.23;2.37;;;;;;;17.59;60.14;96771.00;10468569;28;20036;-30
2022/11/29 20:09:53;;;;;;;4.13;2.80;;;;;;;17.60;60.17;96779.44;10477444;28;20083;-29
2022/11/29 20:14:54;;;;;;;5.23;3.10;;;;;;;17.53;60.70;96783.66;10472400;28;20021;-29
2022/11/29 20:19:54;;;;;;;4.63;2.63;;;;;;;17.50;60.46;96777.72;10469408;28;20497;-29
2022/11/29 20:24:55;;;;;;;8.47;2.60;;;;;;;17.53;60.11;96777.72;10474981;28;20525;-29
2022/11/29 20:29:55;;;;;;;3.88;2.65;;;;;;;17.53;60.07;96780.25;10479091;28;20478;-29
2022/11/29 20:34:57;;;;;;;4.53;2.47;;;;;;;17.52;60.28;96778.56;10474521;28;20032;-31
2022/11/29 20:40:08;;;;;;;3.70;2.30;;;;;;;17.47;60.37;96777.69;10466204;28;20040;-30
2022/11/29 20:45:11;;;;;;;3.03;2.15;;;;;;;17.53;60.38;96790.38;10475818;28;20042;-29
2022/11/29 20:50:23;;;;;;;3.65;2.80;;;;;;;17.52;60.20;96783.63;10476951;28;20037;-29
2022/11/29 20:55:24;;;;;;;6.05;3.00;;;;;;;17.50;59.87;96790.38;10486685;28;20470;-29
2022/11/29 21:00:24;;;;;;;3.80;2.50;;;;;;;17.49;60.01;96787.00;10503197;28;20047;-29
2022/11/29 21:05:25;;;;;;;5.30;2.97;;;;;;;17.51;60.83;96789.53;10481932;28;20048;-30
2022/11/29 21:10:26;;;;;;;5.95;3.38;;;;;;;17.49;60.48;96797.13;10489188;28;20340;-29
2022/11/29 21:15:27;;;;;;;7.53;4.40;;;;;;;17.53;60.52;96785.31;10479163;28;20028;-29
2022/11/29 21:20:27;;;;;;;11.73;4.82;;;;;;;17.53;60.75;96795.44;10482870;28;20116;-30
2022/11/29 21:25:43;;;;;;;6.07;3.67;;;;;;;17.63;61.36;96794.66;10477810;28;20043;-29
2022/11/29 21:30:43;;;;;;;7.03;3.28;;;;;;;17.58;60.68;96803.94;10481293;28;20063;-29
2022/11/29 21:35:44;;;;;;;6.05;3.03;;;;;;;17.54;60.78;96789.53;10479170;28;20416;-30
2022/11/29 21:40:44;;;;;;;8.50;3.03;;;;;;;17.50;61.17;96793.75;10479043;28;20040;-30
2022/11/29 21:45:46;;;;;;;5.97;3.07;;;;;;;17.46;60.65;96788.66;10481845;28;20029;-29
2022/11/29 21:50:48;;;;;;;3.97;2.65;;;;;;;17.46;60.98;96794.56;10483427;28;20071;-29
2022/11/29 21:55:57;;;;;;;6.45;3.35;;;;;;;17.44;61.09;96795.41;10476594;28;20602;-29
2022/11/29 22:01:11;;;;;;;9.57;2.80;;;;;;;17.41;61.26;96792.88;10485975;28;20111;-29
2022/11/29 22:06:19;;;;;;;4.88;2.80;;;;;;;17.45;61.08;96790.34;10487717;28;20118;-29
2022/11/29 22:11:30;;;;;;;7.25;2.67;;;;;;;17.44;61.46;96797.94;10486933;28;20083;-29
2022/11/29 22:16:31;;;;;;;6.88;3.00;;;;;;;17.41;61.32;96796.22;10476540;28;20523;-30
2022/11/29 22:21:31;;;;;;;6.43;3.00;;;;;;;17.43;60.68;96791.19;10475747;28;20032;-30
2022/11/29 22:26:31;;;;;;;5.73;2.83;;;;;;;17.41;60.94;96792.88;10477556;28;20036;-30
2022/11/29 22:31:34;;;;;;;4.80;2.75;;;;;;;17.38;60.86;96792.81;10486116;28;20701;-29
2022/11/29 22:36:35;;;;;;;6.72;2.97;;;;;;;17.39;61.20;96792.00;10477621;28;20435;-29
2022/11/29 22:41:37;;;;;;;7.18;2.53;;;;;;;17.38;61.12;96795.34;10481780;28;20040;-29
2022/11/29 22:46:39;;;;;;;7.47;2.53;;;;;;;17.39;61.40;96792.00;10473083;28;20048;-29
2022/11/29 22:51:40;;;;;;;6.63;2.85;;;;;;;17.38;61.16;96797.91;10475686;28;20432;-29
2022/11/29 22:56:41;;;;;;;6.83;2.60;;;;;;;17.38;61.25;96802.94;10488360;28;20040;-30
2022/11/29 23:01:42;;;;;;;5.80;2.53;;;;;;;17.32;61.23;96801.22;10475019;28;20043;-29
2022/11/29 23:06:44;;;;;;;5.28;2.72;;;;;;;17.34;61.18;96802.06;10480201;28;20039;-29
2022/11/29 23:11:49;;;;;;;11.65;2.50;;;;;;;17.40;61.14;96801.31;10482662;28;20049;-29
2022/11/29 23:16:50;;;;;;;9.05;2.65;;;;;;;17.36;61.24;96794.50;10467789;28;20047;-30
2022/11/29 23:21:51;;;;;;;5.43;2.30;;;;;;;17.42;61.16;96797.09;10481961;28;20032;-29
2022/11/29 23:26:53;;;;;;;4.93;2.25;;;;;;;17.40;60.82;96793.72;10475294;28;20395;-29
2022/11/29 23:31:54;;;;;;;5.43;2.25;;;;;;;17.36;61.06;96795.38;10475590;28;20514;-29
2022/11/29 23:36:54;;;;;;;3.95;2.30;;;;;;;17.36;61.13;96802.09;10470176;28;20036;-30
2022/11/29 23:41:55;;;;;;;4.43;1.90;;;;;;;17.34;60.86;96796.16;10479549;28;20032;-29
2022/11/29 23:46:55;;;;;;;6.67;3.57;;;;;;;17.33;61.44;96797.00;10467774;28;20533;-29
2022/11/29 23:51:55;;;;;;;5.57;2.63;;;;;;;17.35;61.26;96782.66;10474147;28;20291;-31
2022/11/29 23:56:56;;;;;;;5.93;2.67;;;;;;;17.33;61.45;96790.25;10485976;28;20040;-29
